sensor_id;sensor_type;location;lat;lon;timestamp;temperature;humidity
57058;DHT22;55017;52.848;6.748;2023-08-21T00:01:02;15.40;99.90
57058;DHT22;55017;52.848;6.748;2023-08-21T00:03:27;15.40;99.90
57058;DHT22;55017;52.848;6.748;2023-08-21T00:05:53;15.30;99.90
57058;DHT22;55017;52.848;6.748;2023-08-21T00:08:18;15.30;99.90
57058;DHT22;55017;52.848;6.748;2023-08-21T00:10:44;15.30;99.90
57058;DHT22;55017;52.848;6.748;2023-08-21T00:13:09;15.20;99.90
57058;DHT22;55017;52.848;6.748;2023-08-21T00:15:37;15.10;99.90
57058;DHT22;55017;52.848;6.748;2023-08-21T00:18:03;15.10;99.90
57058;DHT22;55017;52.848;6.748;2023-08-21T00:20:29;15.00;99.90
57058;DHT22;55017;52.848;6.748;2023-08-21T00:22:54;15.00;99.90
57058;DHT22;55017;52.848;6.748;2023-08-21T00:25:21;15.00;99.90
57058;DHT22;55017;52.848;6.748;2023-08-21T00:27:47;15.00;99.90
57058;DHT22;55017;52.848;6.748;2023-08-21T00:30:12;15.10;99.90
57058;DHT22;55017;52.848;6.748;2023-08-21T00:32:40;15.00;99.90
57058;DHT22;55017;52.848;6.748;2023-08-21T00:35:06;14.90;99.90
57058;DHT22;55017;52.848;6.748;2023-08-21T00:37:32;15.00;99.90
57058;DHT22;55017;52.848;6.748;2023-08-21T00:39:57;15.10;99.90
57058;DHT22;55017;52.848;6.748;2023-08-21T00:42:23;14.80;99.90
57058;DHT22;55017;52.848;6.748;2023-08-21T00:44:48;14.80;99.90
57058;DHT22;55017;52.848;6.748;2023-08-21T00:47:14;14.80;99.90
57058;DHT22;55017;52.848;6.748;2023-08-21T00:49:40;14.80;99.90
57058;DHT22;55017;52.848;6.748;2023-08-21T00:52:08;14.90;99.90
57058;DHT22;55017;52.848;6.748;2023-08-21T00:54:36;14.80;99.90
57058;DHT22;55017;52.848;6.748;2023-08-21T00:57:02;14.80;99.90
57058;DHT22;55017;52.848;6.748;2023-08-21T00:59:28;14.70;99.90
57058;DHT22;55017;52.848;6.748;2023-08-21T01:01:54;14.80;99.90
57058;DHT22;55017;52.848;6.748;2023-08-21T01:04:20;14.80;99.90
57058;DHT22;55017;52.848;6.748;2023-08-21T01:06:47;14.80;99.90
57058;DHT22;55017;52.848;6.748;2023-08-21T01:12:25;14.80;99.90
57058;DHT22;55017;52.848;6.748;2023-08-21T01:15:03;14.80;99.90
57058;DHT22;55017;52.848;6.748;2023-08-21T01:17:30;14.70;99.90
57058;DHT22;55017;52.848;6.748;2023-08-21T01:19:58;14.70;99.90
57058;DHT22;55017;52.848;6.748;2023-08-21T01:22:35;14.70;99.90
57058;DHT22;55017;52.848;6.748;2023-08-21T01:25:02;14.60;99.90
57058;DHT22;55017;52.848;6.748;2023-08-21T01:27:27;14.50;99.90
57058;DHT22;55017;52.848;6.748;2023-08-21T01:29:53;14.40;99.90
57058;DHT22;55017;52.848;6.748;2023-08-21T01:35:07;14.40;99.90
57058;DHT22;55017;52.848;6.748;2023-08-21T01:37:34;14.50;99.90
57058;DHT22;55017;52.848;6.748;2023-08-21T01:40:01;14.40;99.90
57058;DHT22;55017;52.848;6.748;2023-08-21T01:42:26;14.50;99.90
57058;DHT22;55017;52.848;6.748;2023-08-21T01:44:52;14.40;99.90
57058;DHT22;55017;52.848;6.748;2023-08-21T01:47:17;14.40;99.90
57058;DHT22;55017;52.848;6.748;2023-08-21T01:49:43;14.40;99.90
57058;DHT22;55017;52.848;6.748;2023-08-21T01:52:08;14.20;99.90
57058;DHT22;55017;52.848;6.748;2023-08-21T01:54:35;14.30;99.90
57058;DHT22;55017;52.848;6.748;2023-08-21T01:57:01;14.20;99.90
57058;DHT22;55017;52.848;6.748;2023-08-21T01:59:26;14.20;99.90
57058;DHT22;55017;52.848;6.748;2023-08-21T02:01:52;14.20;99.90
57058;DHT22;55017;52.848;6.748;2023-08-21T02:04:19;14.20;99.90
57058;DHT22;55017;52.848;6.748;2023-08-21T02:06:44;14.20;99.90
57058;DHT22;55017;52.848;6.748;2023-08-21T02:09:10;14.20;99.90
57058;DHT22;55017;52.848;6.748;2023-08-21T02:11:36;14.20;99.90
57058;DHT22;55017;52.848;6.748;2023-08-21T02:14:02;14.10;99.90
57058;DHT22;55017;52.848;6.748;2023-08-21T02:16:28;14.20;99.90
57058;DHT22;55017;52.848;6.748;2023-08-21T02:18:54;14.10;99.90
57058;DHT22;55017;52.848;6.748;2023-08-21T02:21:20;14.10;99.90
57058;DHT22;55017;52.848;6.748;2023-08-21T02:23:45;14.10;99.90
57058;DHT22;55017;52.848;6.748;2023-08-21T02:26:11;14.10;99.90
57058;DHT22;55017;52.848;6.748;2023-08-21T02:28:37;14.00;99.90
57058;DHT22;55017;52.848;6.748;2023-08-21T02:31:02;14.00;99.90
57058;DHT22;55017;52.848;6.748;2023-08-21T02:33:28;14.00;99.90
57058;DHT22;55017;52.848;6.748;2023-08-21T02:35:53;14.00;99.90
57058;DHT22;55017;52.848;6.748;2023-08-21T02:38:19;14.00;99.90
57058;DHT22;55017;52.848;6.748;2023-08-21T02:40:45;14.00;99.90
57058;DHT22;55017;52.848;6.748;2023-08-21T02:43:10;14.00;99.90
57058;DHT22;55017;52.848;6.748;2023-08-21T02:45:36;14.00;99.90
57058;DHT22;55017;52.848;6.748;2023-08-21T02:48:01;14.10;99.90
57058;DHT22;55017;52.848;6.748;2023-08-21T02:50:27;14.00;99.90
57058;DHT22;55017;52.848;6.748;2023-08-21T02:52:53;14.00;99.90
57058;DHT22;55017;52.848;6.748;2023-08-21T02:55:18;14.00;99.90
57058;DHT22;55017;52.848;6.748;2023-08-21T02:57:44;14.10;99.90
57058;DHT22;55017;52.848;6.748;2023-08-21T03:00:10;13.90;99.90
57058;DHT22;55017;52.848;6.748;2023-08-21T03:02:37;13.80;99.90
57058;DHT22;55017;52.848;6.748;2023-08-21T03:05:03;13.80;99.90
57058;DHT22;55017;52.848;6.748;2023-08-21T03:07:29;13.70;99.90
57058;DHT22;55017;52.848;6.748;2023-08-21T03:09:55;13.80;99.90
57058;DHT22;55017;52.848;6.748;2023-08-21T03:12:20;13.70;99.90
57058;DHT22;55017;52.848;6.748;2023-08-21T03:14:46;13.80;99.90
57058;DHT22;55017;52.848;6.748;2023-08-21T03:17:12;13.80;99.90
57058;DHT22;55017;52.848;6.748;2023-08-21T03:19:37;13.60;99.90
57058;DHT22;55017;52.848;6.748;2023-08-21T03:22:03;13.70;99.90
57058;DHT22;55017;52.848;6.748;2023-08-21T03:24:28;13.70;99.90
57058;DHT22;55017;52.848;6.748;2023-08-21T03:26:54;13.50;99.90
57058;DHT22;55017;52.848;6.748;2023-08-21T03:29:19;13.60;99.90
57058;DHT22;55017;52.848;6.748;2023-08-21T03:31:50;13.50;99.90
57058;DHT22;55017;52.848;6.748;2023-08-21T03:34:15;13.60;99.90
57058;DHT22;55017;52.848;6.748;2023-08-21T03:36:41;13.50;99.90
57058;DHT22;55017;52.848;6.748;2023-08-21T03:39:07;13.50;99.90
57058;DHT22;55017;52.848;6.748;2023-08-21T03:41:32;13.40;99.90
57058;DHT22;55017;52.848;6.748;2023-08-21T03:43:58;13.40;99.90
57058;DHT22;55017;52.848;6.748;2023-08-21T03:46:23;13.50;99.90
57058;DHT22;55017;52.848;6.748;2023-08-21T03:48:49;13.40;99.90
57058;DHT22;55017;52.848;6.748;2023-08-21T03:51:16;13.40;99.90
57058;DHT22;55017;52.848;6.748;2023-08-21T03:53:41;13.40;99.90
57058;DHT22;55017;52.848;6.748;2023-08-21T03:56:07;13.40;99.90
57058;DHT22;55017;52.848;6.748;2023-08-21T03:58:33;13.30;99.90
57058;DHT22;55017;52.848;6.748;2023-08-21T04:00:58;13.30;99.90
57058;DHT22;55017;52.848;6.748;2023-08-21T04:03:24;13.30;99.90
57058;DHT22;55017;52.848;6.748;2023-08-21T04:05:52;13.20;99.90
57058;DHT22;55017;52.848;6.748;2023-08-21T04:08:18;13.30;99.90
57058;DHT22;55017;52.848;6.748;2023-08-21T04:10:44;13.30;99.90
57058;DHT22;55017;52.848;6.748;2023-08-21T04:13:09;13.30;99.90
57058;DHT22;55017;52.848;6.748;2023-08-21T04:15:35;13.20;99.90
57058;DHT22;55017;52.848;6.748;2023-08-21T04:18:00;13.20;99.90
57058;DHT22;55017;52.848;6.748;2023-08-21T04:20:26;13.30;99.90
57058;DHT22;55017;52.848;6.748;2023-08-21T04:22:51;13.30;99.90
57058;DHT22;55017;52.848;6.748;2023-08-21T04:25:17;13.20;99.90
57058;DHT22;55017;52.848;6.748;2023-08-21T04:27:43;13.30;99.90
57058;DHT22;55017;52.848;6.748;2023-08-21T04:30:09;13.20;99.90
57058;DHT22;55017;52.848;6.748;2023-08-21T04:32:35;13.30;99.90
57058;DHT22;55017;52.848;6.748;2023-08-21T04:35:01;13.20;99.90
57058;DHT22;55017;52.848;6.748;2023-08-21T04:37:27;13.20;99.90
57058;DHT22;55017;52.848;6.748;2023-08-21T04:39:53;13.30;99.90
57058;DHT22;55017;52.848;6.748;2023-08-21T04:42:20;13.20;99.90
57058;DHT22;55017;52.848;6.748;2023-08-21T04:44:45;13.20;99.90
57058;DHT22;55017;52.848;6.748;2023-08-21T04:47:25;13.20;99.90
57058;DHT22;55017;52.848;6.748;2023-08-21T04:49:52;13.20;99.90
57058;DHT22;55017;52.848;6.748;2023-08-21T04:52:18;13.20;99.90
57058;DHT22;55017;52.848;6.748;2023-08-21T04:54:44;13.20;99.90
57058;DHT22;55017;52.848;6.748;2023-08-21T04:57:10;13.20;99.90
57058;DHT22;55017;52.848;6.748;2023-08-21T04:59:36;13.30;99.90
57058;DHT22;55017;52.848;6.748;2023-08-21T05:02:02;13.20;99.90
57058;DHT22;55017;52.848;6.748;2023-08-21T05:04:27;13.10;99.90
57058;DHT22;55017;52.848;6.748;2023-08-21T05:06:53;13.10;99.90
57058;DHT22;55017;52.848;6.748;2023-08-21T05:09:18;13.30;99.90
57058;DHT22;55017;52.848;6.748;2023-08-21T05:11:44;13.30;99.90
57058;DHT22;55017;52.848;6.748;2023-08-21T05:14:09;13.30;99.90
57058;DHT22;55017;52.848;6.748;2023-08-21T05:16:35;13.40;99.90
57058;DHT22;55017;52.848;6.748;2023-08-21T05:19:00;13.50;99.90
57058;DHT22;55017;52.848;6.748;2023-08-21T05:21:26;13.40;99.90
57058;DHT22;55017;52.848;6.748;2023-08-21T05:23:52;13.50;99.90
57058;DHT22;55017;52.848;6.748;2023-08-21T05:26:19;13.70;99.90
57058;DHT22;55017;52.848;6.748;2023-08-21T05:28:45;13.70;99.90
57058;DHT22;55017;52.848;6.748;2023-08-21T05:31:11;13.80;99.90
57058;DHT22;55017;52.848;6.748;2023-08-21T05:33:36;13.80;99.90
57058;DHT22;55017;52.848;6.748;2023-08-21T05:36:02;13.90;99.90
57058;DHT22;55017;52.848;6.748;2023-08-21T05:38:28;13.90;99.90
57058;DHT22;55017;52.848;6.748;2023-08-21T05:40:53;14.00;99.90
57058;DHT22;55017;52.848;6.748;2023-08-21T05:43:19;14.00;99.90
57058;DHT22;55017;52.848;6.748;2023-08-21T05:45:44;14.10;99.90
57058;DHT22;55017;52.848;6.748;2023-08-21T05:48:10;14.00;99.90
57058;DHT22;55017;52.848;6.748;2023-08-21T05:50:36;14.20;99.90
57058;DHT22;55017;52.848;6.748;2023-08-21T05:53:05;14.30;99.90
57058;DHT22;55017;52.848;6.748;2023-08-21T05:55:31;14.40;99.90
57058;DHT22;55017;52.848;6.748;2023-08-21T05:57:57;14.50;99.90
57058;DHT22;55017;52.848;6.748;2023-08-21T06:00:22;14.60;99.90
57058;DHT22;55017;52.848;6.748;2023-08-21T06:02:48;14.70;99.90
57058;DHT22;55017;52.848;6.748;2023-08-21T06:05:14;14.70;99.90
57058;DHT22;55017;52.848;6.748;2023-08-21T06:07:39;14.70;99.90
57058;DHT22;55017;52.848;6.748;2023-08-21T06:10:09;15.00;99.90
57058;DHT22;55017;52.848;6.748;2023-08-21T06:12:41;14.90;99.90
57058;DHT22;55017;52.848;6.748;2023-08-21T06:15:07;15.10;99.90
57058;DHT22;55017;52.848;6.748;2023-08-21T06:17:34;15.20;99.90
57058;DHT22;55017;52.848;6.748;2023-08-21T06:20:00;15.40;99.90
57058;DHT22;55017;52.848;6.748;2023-08-21T06:22:25;15.40;99.90
57058;DHT22;55017;52.848;6.748;2023-08-21T06:24:51;15.50;99.90
57058;DHT22;55017;52.848;6.748;2023-08-21T06:27:17;15.60;99.90
57058;DHT22;55017;52.848;6.748;2023-08-21T06:29:42;15.80;99.90
57058;DHT22;55017;52.848;6.748;2023-08-21T06:32:08;16.00;99.90
57058;DHT22;55017;52.848;6.748;2023-08-21T06:34:33;16.00;99.90
57058;DHT22;55017;52.848;6.748;2023-08-21T06:36:59;16.20;99.90
57058;DHT22;55017;52.848;6.748;2023-08-21T06:39:25;16.30;99.90
57058;DHT22;55017;52.848;6.748;2023-08-21T06:41:51;16.50;99.90
57058;DHT22;55017;52.848;6.748;2023-08-21T06:44:16;16.70;99.90
57058;DHT22;55017;52.848;6.748;2023-08-21T06:46:42;16.70;99.90
57058;DHT22;55017;52.848;6.748;2023-08-21T06:49:08;16.90;99.90
57058;DHT22;55017;52.848;6.748;2023-08-21T06:51:34;17.20;99.90
57058;DHT22;55017;52.848;6.748;2023-08-21T06:53:59;17.30;99.90
57058;DHT22;55017;52.848;6.748;2023-08-21T06:56:25;17.50;99.90
57058;DHT22;55017;52.848;6.748;2023-08-21T06:58:51;17.60;99.90
57058;DHT22;55017;52.848;6.748;2023-08-21T07:01:17;17.70;99.90
57058;DHT22;55017;52.848;6.748;2023-08-21T07:03:43;17.90;99.90
57058;DHT22;55017;52.848;6.748;2023-08-21T07:06:08;18.20;99.90
57058;DHT22;55017;52.848;6.748;2023-08-21T07:08:34;18.40;99.90
57058;DHT22;55017;52.848;6.748;2023-08-21T07:11:02;18.60;99.90
57058;DHT22;55017;52.848;6.748;2023-08-21T07:13:29;18.70;99.90
57058;DHT22;55017;52.848;6.748;2023-08-21T07:15:54;19.00;99.90
57058;DHT22;55017;52.848;6.748;2023-08-21T07:18:20;19.10;99.90
57058;DHT22;55017;52.848;6.748;2023-08-21T07:20:46;19.20;99.90
57058;DHT22;55017;52.848;6.748;2023-08-21T07:23:12;19.30;99.90
57058;DHT22;55017;52.848;6.748;2023-08-21T07:25:37;19.50;99.90
57058;DHT22;55017;52.848;6.748;2023-08-21T07:28:03;19.60;99.90
57058;DHT22;55017;52.848;6.748;2023-08-21T07:30:29;19.80;99.90
57058;DHT22;55017;52.848;6.748;2023-08-21T07:32:54;20.20;99.90
57058;DHT22;55017;52.848;6.748;2023-08-21T07:35:20;20.20;99.90
57058;DHT22;55017;52.848;6.748;2023-08-21T07:37:46;20.30;99.90
57058;DHT22;55017;52.848;6.748;2023-08-21T07:40:11;20.40;99.90
57058;DHT22;55017;52.848;6.748;2023-08-21T07:42:37;20.60;99.90
57058;DHT22;55017;52.848;6.748;2023-08-21T07:45:03;20.90;99.90
57058;DHT22;55017;52.848;6.748;2023-08-21T07:47:29;20.90;99.90
57058;DHT22;55017;52.848;6.748;2023-08-21T07:49:56;21.00;99.90
57058;DHT22;55017;52.848;6.748;2023-08-21T07:52:22;21.20;99.90
57058;DHT22;55017;52.848;6.748;2023-08-21T07:54:51;21.40;99.90
57058;DHT22;55017;52.848;6.748;2023-08-21T07:57:17;21.30;99.90
57058;DHT22;55017;52.848;6.748;2023-08-21T07:59:43;21.50;99.90
57058;DHT22;55017;52.848;6.748;2023-08-21T08:02:08;21.60;99.90
57058;DHT22;55017;52.848;6.748;2023-08-21T08:04:36;21.80;99.90
57058;DHT22;55017;52.848;6.748;2023-08-21T08:07:02;21.90;99.90
57058;DHT22;55017;52.848;6.748;2023-08-21T08:09:28;22.10;99.90
57058;DHT22;55017;52.848;6.748;2023-08-21T08:11:53;22.40;99.90
57058;DHT22;55017;52.848;6.748;2023-08-21T08:14:19;22.50;99.90
57058;DHT22;55017;52.848;6.748;2023-08-21T08:16:44;22.50;99.90
57058;DHT22;55017;52.848;6.748;2023-08-21T08:19:10;22.60;99.90
57058;DHT22;55017;52.848;6.748;2023-08-21T08:21:35;22.80;99.90
57058;DHT22;55017;52.848;6.748;2023-08-21T08:24:02;22.90;99.90
57058;DHT22;55017;52.848;6.748;2023-08-21T08:26:27;23.10;99.90
57058;DHT22;55017;52.848;6.748;2023-08-21T08:28:53;23.20;99.90
57058;DHT22;55017;52.848;6.748;2023-08-21T08:31:20;23.30;99.90
57058;DHT22;55017;52.848;6.748;2023-08-21T08:33:45;23.40;99.90
57058;DHT22;55017;52.848;6.748;2023-08-21T08:36:11;23.40;99.90
57058;DHT22;55017;52.848;6.748;2023-08-21T08:38:37;23.60;99.90
57058;DHT22;55017;52.848;6.748;2023-08-21T08:41:04;23.60;99.90
57058;DHT22;55017;52.848;6.748;2023-08-21T08:43:34;23.70;99.90
57058;DHT22;55017;52.848;6.748;2023-08-21T08:46:01;23.70;99.90
57058;DHT22;55017;52.848;6.748;2023-08-21T08:48:28;23.90;99.90
57058;DHT22;55017;52.848;6.748;2023-08-21T08:50:54;24.10;99.10
57058;DHT22;55017;52.848;6.748;2023-08-21T08:53:19;24.30;95.50
57058;DHT22;55017;52.848;6.748;2023-08-21T08:55:45;24.50;97.90
57058;DHT22;55017;52.848;6.748;2023-08-21T08:58:11;24.50;96.90
57058;DHT22;55017;52.848;6.748;2023-08-21T09:00:36;24.40;96.20
57058;DHT22;55017;52.848;6.748;2023-08-21T09:03:02;24.60;95.50
57058;DHT22;55017;52.848;6.748;2023-08-21T09:05:28;24.70;96.40
57058;DHT22;55017;52.848;6.748;2023-08-21T09:08:13;24.90;96.30
57058;DHT22;55017;52.848;6.748;2023-08-21T09:10:40;25.00;97.20
57058;DHT22;55017;52.848;6.748;2023-08-21T09:13:25;25.20;95.90
57058;DHT22;55017;52.848;6.748;2023-08-21T09:15:54;25.20;95.80
57058;DHT22;55017;52.848;6.748;2023-08-21T09:18:21;25.30;92.80
57058;DHT22;55017;52.848;6.748;2023-08-21T09:20:47;25.30;90.50
57058;DHT22;55017;52.848;6.748;2023-08-21T09:23:16;25.40;91.60
57058;DHT22;55017;52.848;6.748;2023-08-21T09:25:44;25.60;91.80
57058;DHT22;55017;52.848;6.748;2023-08-21T09:28:13;25.70;91.70
57058;DHT22;55017;52.848;6.748;2023-08-21T09:30:49;25.90;93.60
57058;DHT22;55017;52.848;6.748;2023-08-21T09:33:18;26.00;91.00
57058;DHT22;55017;52.848;6.748;2023-08-21T09:35:44;25.90;88.00
57058;DHT22;55017;52.848;6.748;2023-08-21T09:38:10;25.80;87.80
57058;DHT22;55017;52.848;6.748;2023-08-21T09:40:40;26.00;90.80
57058;DHT22;55017;52.848;6.748;2023-08-21T09:43:08;25.90;82.60
57058;DHT22;55017;52.848;6.748;2023-08-21T09:45:34;26.00;90.10
57058;DHT22;55017;52.848;6.748;2023-08-21T09:48:00;25.80;76.80
57058;DHT22;55017;52.848;6.748;2023-08-21T09:50:26;26.00;87.10
57058;DHT22;55017;52.848;6.748;2023-08-21T09:52:54;26.00;83.40
57058;DHT22;55017;52.848;6.748;2023-08-21T09:55:20;25.90;85.50
57058;DHT22;55017;52.848;6.748;2023-08-21T09:57:48;26.10;87.40
57058;DHT22;55017;52.848;6.748;2023-08-21T10:00:14;26.00;86.30
57058;DHT22;55017;52.848;6.748;2023-08-21T10:02:52;25.90;88.30
57058;DHT22;55017;52.848;6.748;2023-08-21T10:05:19;25.80;88.90
57058;DHT22;55017;52.848;6.748;2023-08-21T10:07:49;25.90;86.30
57058;DHT22;55017;52.848;6.748;2023-08-21T10:10:16;26.10;84.30
57058;DHT22;55017;52.848;6.748;2023-08-21T10:12:42;26.20;88.20
57058;DHT22;55017;52.848;6.748;2023-08-21T10:15:08;26.30;86.80
57058;DHT22;55017;52.848;6.748;2023-08-21T10:17:35;26.50;86.10
57058;DHT22;55017;52.848;6.748;2023-08-21T10:20:06;26.70;86.70
57058;DHT22;55017;52.848;6.748;2023-08-21T10:22:49;26.70;83.00
57058;DHT22;55017;52.848;6.748;2023-08-21T10:25:18;26.90;86.60
57058;DHT22;55017;52.848;6.748;2023-08-21T10:27:57;26.90;83.30
57058;DHT22;55017;52.848;6.748;2023-08-21T10:30:23;26.90;84.60
57058;DHT22;55017;52.848;6.748;2023-08-21T10:32:59;26.80;81.60
57058;DHT22;55017;52.848;6.748;2023-08-21T10:35:29;27.00;81.40
57058;DHT22;55017;52.848;6.748;2023-08-21T10:38:14;27.20;78.00
57058;DHT22;55017;52.848;6.748;2023-08-21T10:43:44;27.50;77.80
57058;DHT22;55017;52.848;6.748;2023-08-21T10:46:11;27.40;68.50
57058;DHT22;55017;52.848;6.748;2023-08-21T10:48:37;27.40;73.90
57058;DHT22;55017;52.848;6.748;2023-08-21T10:51:05;27.60;73.30
57058;DHT22;55017;52.848;6.748;2023-08-21T10:53:31;27.70;74.40
57058;DHT22;55017;52.848;6.748;2023-08-21T10:56:01;27.80;76.40
57058;DHT22;55017;52.848;6.748;2023-08-21T10:58:28;27.80;70.50
57058;DHT22;55017;52.848;6.748;2023-08-21T11:00:58;27.90;75.40
57058;DHT22;55017;52.848;6.748;2023-08-21T11:03:24;27.80;75.20
57058;DHT22;55017;52.848;6.748;2023-08-21T11:06:09;27.70;75.20
57058;DHT22;55017;52.848;6.748;2023-08-21T11:08:35;27.50;72.80
57058;DHT22;55017;52.848;6.748;2023-08-21T11:11:04;27.10;78.90
57058;DHT22;55017;52.848;6.748;2023-08-21T11:13:30;27.30;76.20
57058;DHT22;55017;52.848;6.748;2023-08-21T11:16:03;27.30;79.20
57058;DHT22;55017;52.848;6.748;2023-08-21T11:18:33;27.50;78.00
57058;DHT22;55017;52.848;6.748;2023-08-21T11:21:10;27.80;75.90
57058;DHT22;55017;52.848;6.748;2023-08-21T11:23:40;28.20;75.60
57058;DHT22;55017;52.848;6.748;2023-08-21T11:26:09;28.30;75.30
57058;DHT22;55017;52.848;6.748;2023-08-21T11:28:35;28.50;76.90
57058;DHT22;55017;52.848;6.748;2023-08-21T11:31:01;28.60;70.70
57058;DHT22;55017;52.848;6.748;2023-08-21T11:33:28;28.80;68.60
57058;DHT22;55017;52.848;6.748;2023-08-21T11:35:55;28.80;71.70
57058;DHT22;55017;52.848;6.748;2023-08-21T11:38:23;28.80;69.80
57058;DHT22;55017;52.848;6.748;2023-08-21T11:41:00;28.90;69.50
57058;DHT22;55017;52.848;6.748;2023-08-21T11:43:42;28.70;68.30
57058;DHT22;55017;52.848;6.748;2023-08-21T11:46:09;28.60;68.70
57058;DHT22;55017;52.848;6.748;2023-08-21T11:48:39;28.90;70.80
57058;DHT22;55017;52.848;6.748;2023-08-21T11:51:05;28.90;68.30
57058;DHT22;55017;52.848;6.748;2023-08-21T11:53:38;29.10;70.00
57058;DHT22;55017;52.848;6.748;2023-08-21T11:56:14;29.20;67.60
57058;DHT22;55017;52.848;6.748;2023-08-21T11:58:45;29.30;65.60
57058;DHT22;55017;52.848;6.748;2023-08-21T12:01:15;29.20;65.10
57058;DHT22;55017;52.848;6.748;2023-08-21T12:03:41;29.00;61.10
57058;DHT22;55017;52.848;6.748;2023-08-21T12:06:08;29.20;67.20
57058;DHT22;55017;52.848;6.748;2023-08-21T12:08:34;29.10;66.00
57058;DHT22;55017;52.848;6.748;2023-08-21T12:11:00;29.30;66.20
57058;DHT22;55017;52.848;6.748;2023-08-21T12:13:26;29.50;65.90
57058;DHT22;55017;52.848;6.748;2023-08-21T12:15:51;29.80;65.60
57058;DHT22;55017;52.848;6.748;2023-08-21T12:18:17;29.70;65.70
57058;DHT22;55017;52.848;6.748;2023-08-21T12:20:42;29.50;65.40
57058;DHT22;55017;52.848;6.748;2023-08-21T12:23:08;29.40;65.30
57058;DHT22;55017;52.848;6.748;2023-08-21T12:25:33;29.20;65.00
57058;DHT22;55017;52.848;6.748;2023-08-21T12:27:59;29.30;62.50
57058;DHT22;55017;52.848;6.748;2023-08-21T12:30:25;29.60;66.90
57058;DHT22;55017;52.848;6.748;2023-08-21T12:32:50;29.70;64.70
57058;DHT22;55017;52.848;6.748;2023-08-21T12:35:16;29.50;66.50
57058;DHT22;55017;52.848;6.748;2023-08-21T12:37:42;29.30;65.20
57058;DHT22;55017;52.848;6.748;2023-08-21T12:40:07;28.80;64.70
57058;DHT22;55017;52.848;6.748;2023-08-21T12:42:34;28.70;65.20
57058;DHT22;55017;52.848;6.748;2023-08-21T12:45:00;28.80;66.40
57058;DHT22;55017;52.848;6.748;2023-08-21T12:47:25;29.10;66.30
57058;DHT22;55017;52.848;6.748;2023-08-21T12:49:51;29.50;65.80
57058;DHT22;55017;52.848;6.748;2023-08-21T12:52:16;29.50;62.60
57058;DHT22;55017;52.848;6.748;2023-08-21T12:54:42;29.70;65.20
57058;DHT22;55017;52.848;6.748;2023-08-21T12:57:09;29.60;63.10
57058;DHT22;55017;52.848;6.748;2023-08-21T12:59:34;29.60;62.40
57058;DHT22;55017;52.848;6.748;2023-08-21T13:02:00;29.90;62.10
57058;DHT22;55017;52.848;6.748;2023-08-21T13:04:26;30.30;60.30
57058;DHT22;55017;52.848;6.748;2023-08-21T13:06:52;30.70;59.50
57058;DHT22;55017;52.848;6.748;2023-08-21T13:09:17;30.40;57.30
57058;DHT22;55017;52.848;6.748;2023-08-21T13:11:43;30.70;60.50
57058;DHT22;55017;52.848;6.748;2023-08-21T13:14:08;30.80;59.40
57058;DHT22;55017;52.848;6.748;2023-08-21T13:16:34;31.00;56.40
57058;DHT22;55017;52.848;6.748;2023-08-21T13:19:00;32.20;58.50
57058;DHT22;55017;52.848;6.748;2023-08-21T13:21:25;33.90;58.40
57058;DHT22;55017;52.848;6.748;2023-08-21T13:23:51;35.30;57.60
57058;DHT22;55017;52.848;6.748;2023-08-21T13:26:16;35.70;53.00
57058;DHT22;55017;52.848;6.748;2023-08-21T13:28:42;35.20;52.80
57058;DHT22;55017;52.848;6.748;2023-08-21T13:31:07;34.00;47.50
57058;DHT22;55017;52.848;6.748;2023-08-21T13:33:47;33.10;52.40
57058;DHT22;55017;52.848;6.748;2023-08-21T13:36:14;32.60;51.90
57058;DHT22;55017;52.848;6.748;2023-08-21T13:38:40;32.20;50.30
57058;DHT22;55017;52.848;6.748;2023-08-21T13:41:06;32.90;54.40
57058;DHT22;55017;52.848;6.748;2023-08-21T13:43:32;34.00;53.70
57058;DHT22;55017;52.848;6.748;2023-08-21T13:46:00;35.30;55.80
57058;DHT22;55017;52.848;6.748;2023-08-21T13:48:26;36.40;50.90
57058;DHT22;55017;52.848;6.748;2023-08-21T13:50:51;37.20;50.20
57058;DHT22;55017;52.848;6.748;2023-08-21T13:53:17;37.70;51.60
57058;DHT22;55017;52.848;6.748;2023-08-21T13:55:43;36.80;48.90
57058;DHT22;55017;52.848;6.748;2023-08-21T13:58:08;36.00;47.60
57058;DHT22;55017;52.848;6.748;2023-08-21T14:00:34;35.20;50.10
57058;DHT22;55017;52.848;6.748;2023-08-21T14:03:00;35.00;51.70
57058;DHT22;55017;52.848;6.748;2023-08-21T14:05:25;35.40;51.30
57058;DHT22;55017;52.848;6.748;2023-08-21T14:07:52;36.30;50.60
57058;DHT22;55017;52.848;6.748;2023-08-21T14:10:18;37.00;50.10
57058;DHT22;55017;52.848;6.748;2023-08-21T14:12:43;37.70;44.80
57058;DHT22;55017;52.848;6.748;2023-08-21T14:15:10;37.70;41.10
57058;DHT22;55017;52.848;6.748;2023-08-21T14:17:35;38.00;45.60
57058;DHT22;55017;52.848;6.748;2023-08-21T14:20:02;38.30;44.30
57058;DHT22;55017;52.848;6.748;2023-08-21T14:22:28;38.40;44.10
57058;DHT22;55017;52.848;6.748;2023-08-21T14:24:53;38.40;44.60
57058;DHT22;55017;52.848;6.748;2023-08-21T14:27:19;38.50;44.60
57058;DHT22;55017;52.848;6.748;2023-08-21T14:29:45;38.70;43.20
57058;DHT22;55017;52.848;6.748;2023-08-21T14:32:11;38.30;39.40
57058;DHT22;55017;52.848;6.748;2023-08-21T14:34:37;38.20;42.70
57058;DHT22;55017;52.848;6.748;2023-08-21T14:37:03;38.00;41.60
57058;DHT22;55017;52.848;6.748;2023-08-21T14:39:29;37.40;41.40
57058;DHT22;55017;52.848;6.748;2023-08-21T14:41:58;37.30;44.30
57058;DHT22;55017;52.848;6.748;2023-08-21T14:44:24;37.50;43.70
57058;DHT22;55017;52.848;6.748;2023-08-21T14:46:52;37.50;39.90
57058;DHT22;55017;52.848;6.748;2023-08-21T14:49:18;37.60;41.00
57058;DHT22;55017;52.848;6.748;2023-08-21T14:51:44;37.00;41.70
57058;DHT22;55017;52.848;6.748;2023-08-21T14:54:09;35.80;39.60
57058;DHT22;55017;52.848;6.748;2023-08-21T14:56:35;34.80;44.60
57058;DHT22;55017;52.848;6.748;2023-08-21T14:59:02;33.70;46.30
57058;DHT22;55017;52.848;6.748;2023-08-21T15:01:28;32.40;46.60
57058;DHT22;55017;52.848;6.748;2023-08-21T15:03:53;31.50;47.50
57058;DHT22;55017;52.848;6.748;2023-08-21T15:06:19;30.60;47.90
57058;DHT22;55017;52.848;6.748;2023-08-21T15:08:45;30.10;50.10
57058;DHT22;55017;52.848;6.748;2023-08-21T15:11:10;29.70;52.40
57058;DHT22;55017;52.848;6.748;2023-08-21T15:13:37;29.30;50.50
57058;DHT22;55017;52.848;6.748;2023-08-21T15:16:04;28.90;50.60
57058;DHT22;55017;52.848;6.748;2023-08-21T15:18:30;28.50;51.80
57058;DHT22;55017;52.848;6.748;2023-08-21T15:20:56;28.40;54.30
57058;DHT22;55017;52.848;6.748;2023-08-21T15:23:21;28.10;54.60
57058;DHT22;55017;52.848;6.748;2023-08-21T15:25:47;27.70;57.90
57058;DHT22;55017;52.848;6.748;2023-08-21T15:28:12;27.20;58.90
57058;DHT22;55017;52.848;6.748;2023-08-21T15:30:38;26.90;60.10
57058;DHT22;55017;52.848;6.748;2023-08-21T15:33:04;26.70;60.20
57058;DHT22;55017;52.848;6.748;2023-08-21T15:35:29;26.40;62.00